»·PEaware :: FDX5954 KRIV-KNYL

FDX5954 :: KRIV-KNYL

FLIGHT INFORMATION

Flight Status: Arrived
Operator:
Federal Express
More flights by this operator :: More flights under this callsign
Pilot: Joshua M. (19482)
Aircraft: BOEING 737-800
(B738)
More flights by this aircraft type
Origin: KRIV March ARB
United States
Destination: KNYL Yuma MCAS/Yuma Intl
United States
More flights between these airports :: More routes between these airports
Route: +SKYES3 JLI V458 BZA
File this flight plan on PilotEdge
Remarks:
Altitude:
(Current/Filed)
20,000ft
Speed:
(Current/Filed)
450kts
Departed: 18-Jul-18 06:05 PM
Arrived: 18-Jul-18 06:51 PM
Distance/Time
Traveled:
152nm/0:46
Distance/Time
To Go:
Arrived

Flight Plot

Page will automatically refresh every two minutes.

Flight plan parsing failed; only flown route is shown


Map Options




Map Legend


Flown Route
Filed Route
Departure Airport
Arrival Airport
Navaid (VOR, NDB)
Fix

Horizontal Profiles

Position Reports

Time Latitude Longitude Heading Altitude Ground
Speed
18-Jul-18 17:43 33.871053 -117.247020 61 1543ft 0kts
18-Jul-18 17:44 33.871053 -117.247020 61 1543ft 0kts
18-Jul-18 17:45 33.871053 -117.247020 61 1543ft 0kts
18-Jul-18 17:46 33.871053 -117.247020 61 1543ft 0kts
18-Jul-18 17:47 33.870969 -117.247152 64 1543ft 2kts
18-Jul-18 17:48 33.870778 -117.247762 68 1543ft 2kts
18-Jul-18 17:49 33.870735 -117.247891 62 1543ft 0kts
18-Jul-18 17:50 33.870735 -117.247891 62 1543ft 0kts
18-Jul-18 17:51 33.870737 -117.247843 92 1543ft 0kts
18-Jul-18 17:52 33.870688 -117.247776 151 1543ft 0kts
18-Jul-18 17:53 33.870688 -117.247776 151 1543ft 0kts
18-Jul-18 17:54 33.870688 -117.247776 151 1543ft 0kts
18-Jul-18 17:55 33.870688 -117.247776 151 1543ft 0kts
18-Jul-18 17:56 33.870688 -117.247776 151 1543ft 0kts
18-Jul-18 17:57 33.870688 -117.247776 151 1543ft 0kts
18-Jul-18 17:58 33.870688 -117.247776 151 1543ft 0kts
18-Jul-18 17:59 33.870688 -117.247776 151 1543ft 0kts
18-Jul-18 18:00 33.870620 -117.247731 151 1543ft 1kts
18-Jul-18 18:01 33.869345 -117.247064 168 1543ft 11kts
18-Jul-18 18:02 33.866506 -117.246500 171 1543ft 16kts
18-Jul-18 18:03 33.865561 -117.247223 247 1543ft 0kts
18-Jul-18 18:04 33.865561 -117.247223 247 1543ft 0kts
18-Jul-18 18:05 33.865490 -117.248303 290 1543ft 12kts
18-Jul-18 18:06 33.878510 -117.257639 328 1778ft 150kts
18-Jul-18 18:07 33.911063 -117.283225 324 4172ft 178kts
18-Jul-18 18:08 33.946105 -117.322784 283 4994ft 212kts
18-Jul-18 18:09 33.923334 -117.366760 197 6604ft 228kts
18-Jul-18 18:10 33.870264 -117.353081 160 8750ft 241kts
18-Jul-18 18:11 33.823301 -117.338230 163 10578ft 240kts
18-Jul-18 18:12 33.772900 -117.324791 164 12537ft 241kts
18-Jul-18 18:13 33.710122 -117.309060 164 14910ft 250kts
18-Jul-18 18:14 33.646866 -117.293485 165 16912ft 258kts
18-Jul-18 18:15 33.590609 -117.255257 143 18767ft 261kts
18-Jul-18 18:16 33.532037 -117.207173 143 19970ft 318kts
18-Jul-18 18:17 33.462118 -117.149312 143 20016ft 346kts
18-Jul-18 18:18 33.391867 -117.091173 143 20011ft 345kts
18-Jul-18 18:19 33.342727 -117.014198 118 20013ft 340kts
18-Jul-18 18:20 33.299237 -116.923007 117 21118ft 345kts
18-Jul-18 18:21 33.254184 -116.827163 117 23062ft 356kts
18-Jul-18 18:22 33.208258 -116.729557 117 24619ft 365kts
18-Jul-18 18:23 33.162557 -116.632694 117 26121ft 361kts
18-Jul-18 18:24 33.109216 -116.542263 127 27121ft 381kts
18-Jul-18 18:25 33.044817 -116.450745 128 27106ft 383kts
18-Jul-18 18:26 32.981625 -116.361623 128 27113ft 384kts
18-Jul-18 18:27 32.920344 -116.275453 128 27092ft 381kts
18-Jul-18 18:28 32.859373 -116.189934 128 26939ft 356kts
18-Jul-18 18:29 32.801845 -116.109358 128 26495ft 377kts
18-Jul-18 18:30 32.763987 -116.015135 95 26171ft 372kts
18-Jul-18 18:31 32.759195 -115.914444 91 25138ft 365kts
18-Jul-18 18:32 32.756487 -115.811241 91 24032ft 358kts
18-Jul-18 18:33 32.753950 -115.707839 91 22911ft 351kts
18-Jul-18 18:34 32.751327 -115.603351 91 21783ft 346kts
18-Jul-18 18:35 32.749083 -115.504103 88 20725ft 341kts
18-Jul-18 18:36 32.751485 -115.402216 88 19670ft 335kts
18-Jul-18 18:37 32.753860 -115.301043 88 18652ft 331kts
18-Jul-18 18:38 32.756003 -115.207243 88 17645ft 325kts
18-Jul-18 18:39 32.758076 -115.113352 88 15909ft 303kts
18-Jul-18 18:40 32.767227 -115.026045 71 14515ft 285kts
18-Jul-18 18:41 32.792378 -114.944922 71 12550ft 279kts
18-Jul-18 18:42 32.816324 -114.865165 70 9728ft 268kts
18-Jul-18 18:43 32.836358 -114.789223 70 7997ft 224kts
18-Jul-18 18:44 32.849238 -114.722720 90 6196ft 226kts
18-Jul-18 18:45 32.845248 -114.660579 90 5114ft 203kts
18-Jul-18 18:46 32.842110 -114.607852 90 3662ft 190kts
18-Jul-18 18:47 32.821354 -114.570006 183 2358ft 162kts
18-Jul-18 18:48 32.786832 -114.590287 213 2272ft 148kts
18-Jul-18 18:49 32.748281 -114.602544 184 2249ft 155kts
18-Jul-18 18:50 32.709050 -114.603375 184 1450ft 152kts
18-Jul-18 18:51 32.672506 -114.603818 183 271ft 132kts
18-Jul-18 18:52 32.653027 -114.603832 190 220ft 17kts
18-Jul-18 18:53 32.652574 -114.603780 357 220ft 6kts
18-Jul-18 18:54 32.658157 -114.603927 358 220ft 34kts
18-Jul-18 18:55 32.667221 -114.603412 89 220ft 15kts
18-Jul-18 18:56 32.667328 -114.600199 85 220ft 8kts

Navigation Log

Ident Type
Flight plan parsing failed, navigation log unavailable